Time;durP1;ratioP1;P1;durP2;ratioP2;P2;SDS_P1;SDS_P2;PMS_P1;PMS_P2;Temp;Humidity;BMP_temperature;BMP_pressure;BME280_temperature;BME280_humidity;BME280_pressure;Samples;Min_cycle;Max_cycle;Signal;HPM_P1;HPM_P2
2023/07/10 00:02:13;;;;;;;9.18;5.03;;;;;;;;;;4908307;29;20082;-83
2023/07/10 00:04:38;;;;;;;13.43;4.63;;;;;;;;;;4908246;29;20102;-84
2023/07/10 00:07:09;;;;;;;15.00;4.70;;;;;;;;;;4879824;29;20036;-83
2023/07/10 00:09:38;;;;;;;9.20;4.70;;;;;;;;;;4930324;29;20035;-81
2023/07/10 00:12:05;;;;;;;8.25;4.50;;;;;;;;;;4931948;29;20036;-82
2023/07/10 00:14:33;;;;;;;23.67;5.68;;;;;;;;;;4940942;29;20028;-84
2023/07/10 00:16:59;;;;;;;14.18;5.45;;;;;;;;;;4930917;29;20484;-84
2023/07/10 00:19:24;;;;;;;10.63;4.78;;;;;;;;;;4943694;29;20122;-82
2023/07/10 00:21:50;;;;;;;9.73;4.82;;;;;;;;;;4941170;23;20408;-81
2023/07/10 00:24:16;;;;;;;11.57;4.78;;;;;;;;;;4955808;29;20030;-80
2023/07/10 00:26:42;;;;;;;11.25;5.25;;;;;;;;;;4955875;29;20078;-81
2023/07/10 00:29:26;;;;;;;13.73;4.75;;;;;;;;;;4923054;29;20035;-80
2023/07/10 00:31:52;;;;;;;10.38;5.35;;;;;;;;;;4939046;29;20031;-81
2023/07/10 00:34:18;;;;;;;10.90;5.40;;;;;;;;;;4950079;29;20036;-80
2023/07/10 00:36:48;;;;;;;10.88;4.80;;;;;;;;;;4900867;29;20043;-79
2023/07/10 00:39:19;;;;;;;11.77;5.60;;;;;;;;;;4905475;29;20035;-79
2023/07/10 00:41:45;;;;;;;9.45;5.10;;;;;;;;;;4918528;29;20192;-79
2023/07/10 00:44:12;;;;;;;9.93;5.18;;;;;;;;;;4921321;29;20063;-81
2023/07/10 00:47:07;;;;;;;14.65;5.97;;;;;;;;;;4911743;29;20047;-79
2023/07/10 00:49:36;;;;;;;6.50;4.43;;;;;;;;;;4917765;29;20071;-80
2023/07/10 00:52:28;;;;;;;8.05;4.93;;;;;;;;;;4934197;29;20028;-80
2023/07/10 00:54:56;;;;;;;10.07;5.45;;;;;;;;;;4934876;29;20068;-82
2023/07/10 00:57:24;;;;;;;14.00;6.60;;;;;;;;;;4938943;29;20035;-80
2023/07/10 00:59:51;;;;;;;7.05;4.45;;;;;;;;;;4928605;29;20036;-82
2023/07/10 01:02:18;;;;;;;11.35;4.70;;;;;;;;;;4922821;29;20041;-81
2023/07/10 01:04:47;;;;;;;8.07;4.90;;;;;;;;;;4918501;29;20040;-81
2023/07/10 01:07:13;;;;;;;11.07;5.30;;;;;;;;;;4915712;29;20039;-82
2023/07/10 01:09:41;;;;;;;9.02;5.00;;;;;;;;;;4934916;29;20036;-82
2023/07/10 01:12:07;;;;;;;9.48;4.88;;;;;;;;;;4898898;29;20043;-82
2023/07/10 01:14:34;;;;;;;9.30;4.95;;;;;;;;;;4932465;29;20036;-83
2023/07/10 01:17:03;;;;;;;6.50;4.85;;;;;;;;;;4912340;29;20028;-83
2023/07/10 01:19:29;;;;;;;7.25;4.60;;;;;;;;;;4906209;29;20048;-82
2023/07/10 01:21:56;;;;;;;10.30;5.07;;;;;;;;;;4936618;29;20028;-83
2023/07/10 01:24:22;;;;;;;6.78;4.90;;;;;;;;;;4903771;29;20032;-83
2023/07/10 01:26:51;;;;;;;7.18;5.00;;;;;;;;;;4934887;29;20032;-83
2023/07/10 01:29:17;;;;;;;8.25;5.32;;;;;;;;;;4902823;29;20039;-82
2023/07/10 01:31:44;;;;;;;8.32;4.72;;;;;;;;;;4918982;29;20044;-82
2023/07/10 01:34:11;;;;;;;10.95;5.60;;;;;;;;;;4915648;29;20035;-82
2023/07/10 01:36:39;;;;;;;8.30;5.00;;;;;;;;;;4898516;29;20032;-82
2023/07/10 01:39:10;;;;;;;11.80;5.13;;;;;;;;;;4916900;29;20024;-81
2023/07/10 01:41:39;;;;;;;10.02;5.13;;;;;;;;;;4893164;29;20040;-81
2023/07/10 01:44:24;;;;;;;7.97;4.80;;;;;;;;;;4888900;29;20028;-82
2023/07/10 01:46:50;;;;;;;8.43;5.38;;;;;;;;;;4911287;29;20048;-82
2023/07/10 01:49:19;;;;;;;6.95;5.10;;;;;;;;;;4912797;29;20559;-82
2023/07/10 01:51:44;;;;;;;;;;;;;;;;;;4904662;29;20056;-82
2023/07/10 01:54:16;;;;;;;8.77;5.45;;;;;;;;;;4911942;29;19911;-82
2023/07/10 01:56:42;;;;;;;11.70;4.97;;;;;;;;;;4907914;29;20098;-82
2023/07/10 01:59:07;;;;;;;10.27;5.15;;;;;;;;;;4905665;29;20091;-82
2023/07/10 02:01:33;;;;;;;6.75;4.75;;;;;;;;;;4895816;29;20203;-82
2023/07/10 02:03:59;;;;;;;8.00;4.93;;;;;;;;;;4910405;29;20032;-82
2023/07/10 02:06:25;;;;;;;10.73;5.53;;;;;;;;;;4921999;29;20029;-82
2023/07/10 02:08:51;;;;;;;8.27;5.03;;;;;;;;;;4922708;29;20040;-82
2023/07/10 02:11:18;;;;;;;6.85;4.80;;;;;;;;;;4910367;29;20127;-83
2023/07/10 02:13:44;;;;;;;9.32;5.25;;;;;;;;;;4929022;29;20070;-83
2023/07/10 02:16:10;;;;;;;8.52;4.97;;;;;;;;;;4925811;29;20031;-83
2023/07/10 02:18:36;;;;;;;10.52;5.40;;;;;;;;;;4908823;29;20031;-83
2023/07/10 02:21:12;;;;;;;7.32;4.97;;;;;;;;;;4941634;29;20499;-83
2023/07/10 02:23:40;;;;;;;8.40;4.85;;;;;;;;;;4924954;29;20046;-82
2023/07/10 02:26:08;;;;;;;9.82;5.13;;;;;;;;;;4892995;29;20495;-83
2023/07/10 02:28:37;;;;;;;11.10;5.75;;;;;;;;;;4908777;29;20043;-82
2023/07/10 02:31:09;;;;;;;8.95;4.75;;;;;;;;;;4892946;29;20039;-83
2023/07/10 02:33:36;;;;;;;8.13;4.80;;;;;;;;;;4908984;29;20058;-83
2023/07/10 02:36:02;;;;;;;8.38;4.65;;;;;;;;;;4925383;29;20111;-83
2023/07/10 02:38:28;;;;;;;8.00;4.95;;;;;;;;;;4923726;29;20036;-82
2023/07/10 02:40:55;;;;;;;8.18;4.88;;;;;;;;;;4917747;29;20589;-82
2023/07/10 02:43:21;;;;;;;6.82;4.60;;;;;;;;;;4905560;29;20476;-82
2023/07/10 02:45:47;;;;;;;13.07;7.00;;;;;;;;;;4922799;29;20032;-82
2023/07/10 02:48:13;;;;;;;9.55;5.20;;;;;;;;;;4925051;29;20032;-82
2023/07/10 02:50:39;;;;;;;9.82;4.70;;;;;;;;;;4909175;29;20059;-82
2023/07/10 02:53:05;;;;;;;7.25;5.10;;;;;;;;;;4904091;29;20080;-82
2023/07/10 02:55:31;;;;;;;11.80;5.45;;;;;;;;;;4917722;29;20400;-82
2023/07/10 02:57:57;;;;;;;8.45;5.10;;;;;;;;;;4907166;29;20084;-82
2023/07/10 03:00:23;;;;;;;10.63;5.70;;;;;;;;;;4926244;29;20032;-81
2023/07/10 03:02:52;;;;;;;8.98;5.10;;;;;;;;;;4936171;29;20503;-82
2023/07/10 03:05:19;;;;;;;10.65;5.60;;;;;;;;;;4926816;29;20032;-82
2023/07/10 03:07:56;;;;;;;9.52;5.13;;;;;;;;;;4929760;29;20059;-83
2023/07/10 03:10:28;;;;;;;9.13;4.80;;;;;;;;;;4933724;29;20044;-81
2023/07/10 03:12:57;;;;;;;13.27;5.72;;;;;;;;;;4947825;29;20027;-82
2023/07/10 03:15:29;;;;;;;9.18;5.05;;;;;;;;;;4935919;29;20028;-82
2023/07/10 03:17:56;;;;;;;8.27;5.50;;;;;;;;;;4936560;29;20050;-82
2023/07/10 03:20:21;;;;;;;9.75;4.68;;;;;;;;;;4937124;29;20114;-82
2023/07/10 03:22:49;;;;;;;9.20;5.22;;;;;;;;;;4938785;29;20039;-82
2023/07/10 03:25:15;;;;;;;8.82;5.47;;;;;;;;;;4945001;29;20023;-81
2023/07/10 03:28:15;;;;;;;;;;;;;;;;;;;;;
2023/07/10 03:31:06;;;;;;;14.20;9.85;;;;;;;;;;4924639;29;20040;-81
2023/07/10 03:33:33;;;;;;;9.38;5.63;;;;;;;;;;4909034;29;20032;-81
2023/07/10 03:36:07;;;;;;;9.55;5.00;;;;;;;;;;4925733;29;20048;-81
2023/07/10 03:38:33;;;;;;;12.68;5.32;;;;;;;;;;4905702;29;20040;-81
2023/07/10 03:41:02;;;;;;;7.50;4.90;;;;;;;;;;4918039;29;20102;-81
2023/07/10 03:43:28;;;;;;;9.07;5.68;;;;;;;;;;4927203;29;20091;-82
2023/07/10 03:45:56;;;;;;;;;;;;;;;;;;4930494;29;20024;-82
2023/07/10 03:51:15;;;;;;;10.02;5.38;;;;;;;;;;4899570;29;20108;-83
2023/07/10 03:53:41;;;;;;;8.55;4.65;;;;;;;;;;4942527;29;20032;-81
2023/07/10 03:56:08;;;;;;;9.85;4.80;;;;;;;;;;4927692;29;20043;-82
2023/07/10 03:58:35;;;;;;;7.57;4.90;;;;;;;;;;4911789;29;20521;-81
2023/07/10 04:01:04;;;;;;;10.38;5.72;;;;;;;;;;4894171;29;20035;-82
2023/07/10 04:03:34;;;;;;;7.25;5.20;;;;;;;;;;4909936;29;20028;-81
2023/07/10 04:06:02;;;;;;;9.73;4.78;;;;;;;;;;4911943;29;20028;-82
2023/07/10 04:08:35;;;;;;;8.70;5.55;;;;;;;;;;4950185;29;20259;-82
2023/07/10 04:11:22;;;;;;;8.65;5.28;;;;;;;;;;4908807;29;20042;-82
2023/07/10 04:13:50;;;;;;;11.23;5.40;;;;;;;;;;4915645;29;20122;-81
2023/07/10 04:16:28;;;;;;;8.65;4.72;;;;;;;;;;4914265;29;20043;-81
2023/07/10 04:19:03;;;;;;;11.80;5.20;;;;;;;;;;4928308;29;20031;-80
2023/07/10 04:21:37;;;;;;;13.40;4.93;;;;;;;;;;4945472;29;20036;-82
2023/07/10 04:24:20;;;;;;;;;;;;;;;;;;;;;
2023/07/10 04:26:57;;;;;;;8.00;5.18;;;;;;;;;;4943000;29;20061;-82
2023/07/10 04:29:28;;;;;;;9.30;4.68;;;;;;;;;;4938734;29;20035;-81
2023/07/10 04:32:03;;;;;;;10.65;5.07;;;;;;;;;;4923543;29;20091;-81
2023/07/10 04:34:30;;;;;;;8.13;4.93;;;;;;;;;;4891158;29;20028;-81
2023/07/10 04:36:57;;;;;;;10.18;5.28;;;;;;;;;;4905015;29;20036;-80
2023/07/10 04:39:33;;;;;;;8.77;5.18;;;;;;;;;;4904711;29;20028;-80
2023/07/10 04:42:07;;;;;;;8.25;5.18;;;;;;;;;;4902532;29;20036;-79
2023/07/10 04:44:41;;;;;;;9.57;5.30;;;;;;;;;;4906720;29;20024;-80
2023/07/10 04:47:10;;;;;;;10.32;5.07;;;;;;;;;;4886675;29;20082;-82
2023/07/10 04:49:47;;;;;;;10.93;5.40;;;;;;;;;;4896784;29;20035;-82
2023/07/10 04:52:13;;;;;;;7.30;4.75;;;;;;;;;;4888997;29;20036;-82
2023/07/10 04:54:39;;;;;;;13.85;5.38;;;;;;;;;;4903053;29;20038;-81
2023/07/10 04:57:09;;;;;;;13.73;5.65;;;;;;;;;;4880833;29;20104;-82
2023/07/10 04:59:38;;;;;;;11.95;5.63;;;;;;;;;;4917934;29;20047;-82
2023/07/10 05:02:15;;;;;;;10.82;5.80;;;;;;;;;;4906151;29;20020;-81
2023/07/10 05:04:49;;;;;;;10.23;5.50;;;;;;;;;;4907914;29;20044;-81
2023/07/10 05:07:19;;;;;;;10.52;5.78;;;;;;;;;;4906248;29;20040;-81
2023/07/10 05:10:03;;;;;;;17.65;5.68;;;;;;;;;;4889901;29;20020;-82
2023/07/10 05:12:59;;;;;;;8.68;5.13;;;;;;;;;;4925070;29;20133;-80
2023/07/10 05:15:40;;;;;;;9.35;6.00;;;;;;;;;;4909923;29;20047;-81
2023/07/10 05:18:16;;;;;;;9.75;5.53;;;;;;;;;;4925129;29;20044;-82
2023/07/10 05:20:49;;;;;;;11.35;6.07;;;;;;;;;;4896079;29;20039;-82
2023/07/10 05:23:20;;;;;;;16.08;6.28;;;;;;;;;;4915107;29;20048;-80
2023/07/10 05:25:56;;;;;;;8.63;5.18;;;;;;;;;;4873216;29;20171;-80
2023/07/10 05:28:22;;;;;;;14.70;5.30;;;;;;;;;;4899739;29;20047;-79
2023/07/10 05:30:48;;;;;;;10.93;6.00;;;;;;;;;;4883883;29;20032;-80
2023/07/10 05:33:14;;;;;;;10.90;6.10;;;;;;;;;;4869459;29;20225;-80
2023/07/10 05:35:47;;;;;;;14.35;6.10;;;;;;;;;;4899832;29;20483;-79
2023/07/10 05:38:13;;;;;;;8.88;5.53;;;;;;;;;;4899557;29;20063;-78
2023/07/10 05:40:42;;;;;;;11.20;5.60;;;;;;;;;;4883778;29;20044;-79
2023/07/10 05:43:08;;;;;;;13.85;5.82;;;;;;;;;;4883923;29;20087;-79
2023/07/10 05:45:34;;;;;;;14.18;5.82;;;;;;;;;;4883928;29;20036;-79
2023/07/10 05:48:00;;;;;;;12.18;5.20;;;;;;;;;;4899017;29;20099;-80
2023/07/10 05:50:26;;;;;;;8.55;5.32;;;;;;;;;;4883726;29;20047;-80
2023/07/10 05:52:52;;;;;;;10.57;5.90;;;;;;;;;;4887374;29;20040;-80
2023/07/10 05:55:18;;;;;;;8.52;5.53;;;;;;;;;;4916846;29;20555;-80
2023/07/10 05:57:44;;;;;;;11.98;4.85;;;;;;;;;;4884734;29;20036;-80
2023/07/10 06:00:10;;;;;;;8.82;4.95;;;;;;;;;;4884069;29;20028;-80
2023/07/10 06:02:36;;;;;;;10.32;5.57;;;;;;;;;;4899576;29;20091;-80
2023/07/10 06:05:02;;;;;;;9.10;5.22;;;;;;;;;;4884078;29;20028;-80
2023/07/10 06:07:28;;;;;;;13.32;5.57;;;;;;;;;;4899438;29;20043;-80
2023/07/10 06:09:53;;;;;;;10.15;4.97;;;;;;;;;;4899225;29;20032;-80
2023/07/10 06:12:19;;;;;;;19.10;5.25;;;;;;;;;;4914549;29;20119;-80
2023/07/10 06:14:45;;;;;;;9.75;5.00;;;;;;;;;;4883692;29;20035;-81
2023/07/10 06:17:11;;;;;;;10.70;4.55;;;;;;;;;;4899446;29;20039;-80
2023/07/10 06:19:36;;;;;;;8.65;4.90;;;;;;;;;;4884520;29;20040;-79
2023/07/10 06:22:07;;;;;;;7.95;5.03;;;;;;;;;;4938040;23;20051;-83
2023/07/10 06:24:33;;;;;;;13.88;5.10;;;;;;;;;;4939702;29;20059;-83
2023/07/10 06:26:58;;;;;;;10.68;5.03;;;;;;;;;;4925759;29;20042;-83
2023/07/10 06:29:24;;;;;;;9.10;5.18;;;;;;;;;;4958230;29;20073;-83
2023/07/10 06:31:49;;;;;;;15.80;5.30;;;;;;;;;;4938212;29;20067;-84
2023/07/10 06:34:15;;;;;;;10.45;4.95;;;;;;;;;;4920098;29;20039;-82
2023/07/10 06:36:40;;;;;;;7.65;4.47;;;;;;;;;;4935454;29;20399;-83
2023/07/10 06:39:06;;;;;;;11.55;5.00;;;;;;;;;;4935674;29;20115;-84
2023/07/10 06:41:31;;;;;;;8.38;4.93;;;;;;;;;;4935372;29;20036;-82
2023/07/10 06:43:57;;;;;;;7.63;4.82;;;;;;;;;;4903385;29;20344;-84
2023/07/10 06:46:23;;;;;;;10.70;5.38;;;;;;;;;;4925791;29;20035;-83
2023/07/10 06:48:49;;;;;;;9.23;5.80;;;;;;;;;;4895997;29;20068;-83
2023/07/10 06:51:14;;;;;;;11.23;5.50;;;;;;;;;;4906916;29;20063;-83
2023/07/10 06:53:50;;;;;;;12.88;5.00;;;;;;;;;;4924910;29;20071;-84
2023/07/10 06:56:18;;;;;;;8.82;5.15;;;;;;;;;;4927168;29;20032;-83
2023/07/10 06:58:44;;;;;;;13.80;6.07;;;;;;;;;;4894037;29;20043;-84
2023/07/10 07:01:10;;;;;;;8.02;5.13;;;;;;;;;;4937592;29;20024;-83
2023/07/10 07:03:36;;;;;;;13.48;4.78;;;;;;;;;;4900107;29;20103;-84
2023/07/10 07:06:09;;;;;;;8.18;4.95;;;;;;;;;;4934078;29;20038;-84
2023/07/10 07:08:38;;;;;;;12.88;5.18;;;;;;;;;;4908932;29;20047;-82
2023/07/10 07:11:03;;;;;;;9.50;5.07;;;;;;;;;;4914379;29;20444;-83
2023/07/10 07:13:29;;;;;;;12.13;5.18;;;;;;;;;;4935175;29;20036;-81
2023/07/10 07:15:55;;;;;;;15.77;5.45;;;;;;;;;;4931437;29;20044;-81
2023/07/10 07:18:22;;;;;;;10.88;5.28;;;;;;;;;;4914601;29;20036;-81
2023/07/10 07:20:48;;;;;;;12.85;5.32;;;;;;;;;;4932992;29;20043;-82
2023/07/10 07:23:13;;;;;;;12.48;5.97;;;;;;;;;;4928961;29;20413;-79
2023/07/10 07:25:40;;;;;;;12.80;5.30;;;;;;;;;;4936748;29;20122;-82
2023/07/10 07:28:05;;;;;;;12.18;5.63;;;;;;;;;;4931104;29;20038;-82
2023/07/10 07:30:31;;;;;;;15.35;5.63;;;;;;;;;;4937281;29;20114;-82
2023/07/10 07:32:57;;;;;;;12.30;5.22;;;;;;;;;;4920727;29;20080;-82
2023/07/10 07:35:23;;;;;;;13.88;5.65;;;;;;;;;;4937319;29;20034;-80
2023/07/10 07:37:49;;;;;;;10.98;4.93;;;;;;;;;;4939272;29;20483;-82
2023/07/10 07:40:16;;;;;;;11.48;5.10;;;;;;;;;;4922463;29;20127;-82
2023/07/10 07:42:46;;;;;;;9.88;5.05;;;;;;;;;;4937018;29;20118;-81
2023/07/10 07:45:12;;;;;;;11.07;5.28;;;;;;;;;;4937713;29;20519;-82
2023/07/10 07:47:37;;;;;;;12.02;5.65;;;;;;;;;;4936664;29;20500;-82
2023/07/10 07:50:03;;;;;;;14.18;5.53;;;;;;;;;;4921943;29;20046;-82
2023/07/10 07:52:29;;;;;;;15.43;5.18;;;;;;;;;;4937209;29;20058;-81
2023/07/10 07:54:54;;;;;;;13.93;5.43;;;;;;;;;;4922104;29;20043;-82
2023/07/10 07:57:22;;;;;;;21.17;5.68;;;;;;;;;;4909583;29;20063;-84
2023/07/10 07:59:48;;;;;;;11.13;5.47;;;;;;;;;;4931467;29;20039;-81
2023/07/10 08:02:14;;;;;;;15.15;5.88;;;;;;;;;;4893981;29;20126;-83
2023/07/10 08:04:41;;;;;;;11.18;5.85;;;;;;;;;;4925351;29;20518;-81
2023/07/10 08:07:07;;;;;;;16.73;5.50;;;;;;;;;;4942792;29;20036;-82
2023/07/10 08:09:33;;;;;;;18.45;6.15;;;;;;;;;;4926187;29;20043;-81
2023/07/10 08:12:02;;;;;;;14.48;5.85;;;;;;;;;;4922455;29;20066;-83
2023/07/10 08:14:29;;;;;;;17.45;5.47;;;;;;;;;;4923223;29;20047;-82
2023/07/10 08:16:55;;;;;;;16.35;6.07;;;;;;;;;;4937320;29;20036;-83
2023/07/10 08:19:20;;;;;;;14.73;5.97;;;;;;;;;;4920375;29;20542;-82
2023/07/10 08:21:46;;;;;;;18.25;5.80;;;;;;;;;;4936660;29;20028;-83
2023/07/10 08:24:12;;;;;;;13.30;5.40;;;;;;;;;;4936022;29;20090;-82
2023/07/10 08:26:38;;;;;;;14.35;5.97;;;;;;;;;;4920261;29;20056;-84
2023/07/10 08:29:22;;;;;;;14.25;6.20;;;;;;;;;;4937126;29;20036;-82
2023/07/10 08:31:47;;;;;;;9.25;6.10;;;;;;;;;;4936815;29;20143;-83
2023/07/10 08:34:13;;;;;;;10.48;6.25;;;;;;;;;;4920827;29;20067;-83
2023/07/10 08:36:38;;;;;;;14.02;6.35;;;;;;;;;;4919788;29;20086;-84
2023/07/10 08:39:04;;;;;;;14.77;6.82;;;;;;;;;;4903787;29;20036;-81
2023/07/10 08:41:30;;;;;;;16.38;7.00;;;;;;;;;;4902986;29;20047;-81
2023/07/10 08:44:07;;;;;;;12.70;6.68;;;;;;;;;;4901895;29;20496;-81
2023/07/10 08:46:33;;;;;;;10.98;5.68;;;;;;;;;;4930833;29;20040;-82
2023/07/10 08:49:01;;;;;;;14.50;6.63;;;;;;;;;;4935670;29;20035;-82
2023/07/10 08:51:34;;;;;;;12.52;6.88;;;;;;;;;;4918837;29;20047;-80
2023/07/10 08:54:09;;;;;;;15.02;6.75;;;;;;;;;;4936297;29;20107;-81
2023/07/10 08:56:38;;;;;;;11.98;5.70;;;;;;;;;;4937099;29;20036;-82
2023/07/10 08:59:09;;;;;;;13.93;5.80;;;;;;;;;;4943840;29;20491;-81
2023/07/10 09:01:39;;;;;;;11.00;6.60;;;;;;;;;;4928402;29;20031;-81
2023/07/10 09:04:06;;;;;;;10.48;6.43;;;;;;;;;;4924242;29;20026;-83
2023/07/10 09:06:43;;;;;;;10.75;6.20;;;;;;;;;;4938923;29;20042;-81
2023/07/10 09:09:23;;;;;;;12.60;6.25;;;;;;;;;;4924568;29;20039;-80
2023/07/10 09:11:49;;;;;;;15.68;7.07;;;;;;;;;;4910097;29;20043;-81
2023/07/10 09:14:20;;;;;;;14.57;7.00;;;;;;;;;;4942105;29;20036;-82
2023/07/10 09:16:46;;;;;;;12.82;7.30;;;;;;;;;;4922886;29;20483;-81
2023/07/10 09:19:18;;;;;;;12.13;6.97;;;;;;;;;;4926637;29;20032;-81
2023/07/10 09:21:44;;;;;;;15.10;7.70;;;;;;;;;;4939301;29;20035;-82
2023/07/10 09:24:28;;;;;;;13.27;6.75;;;;;;;;;;4938770;29;20040;-81
2023/07/10 09:26:53;;;;;;;17.13;7.45;;;;;;;;;;4920108;29;20401;-81
2023/07/10 09:29:31;;;;;;;11.18;6.85;;;;;;;;;;4921378;29;20028;-82
2023/07/10 09:32:10;;;;;;;11.77;6.38;;;;;;;;;;4927748;29;20396;-82
2023/07/10 09:34:40;;;;;;;12.75;6.10;;;;;;;;;;4926892;29;20032;-80
2023/07/10 09:37:09;;;;;;;12.48;6.20;;;;;;;;;;4928338;29;20058;-80
2023/07/10 09:39:35;;;;;;;14.52;6.90;;;;;;;;;;4924975;29;20032;-80
2023/07/10 09:42:01;;;;;;;9.00;5.95;;;;;;;;;;4908754;29;20035;-82
2023/07/10 09:44:35;;;;;;;10.48;6.25;;;;;;;;;;4907453;29;20035;-80
2023/07/10 09:47:06;;;;;;;12.95;6.95;;;;;;;;;;4912657;29;20031;-80
2023/07/10 09:49:34;;;;;;;14.55;6.90;;;;;;;;;;4927546;29;20223;-81
2023/07/10 09:52:01;;;;;;;11.77;5.75;;;;;;;;;;4946961;29;20028;-81
2023/07/10 09:54:36;;;;;;;10.35;5.85;;;;;;;;;;4955398;29;20039;-80
2023/07/10 09:57:02;;;;;;;10.82;6.13;;;;;;;;;;4950364;29;20028;-80
2023/07/10 09:59:30;;;;;;;11.48;6.03;;;;;;;;;;4932534;29;20016;-79
2023/07/10 10:02:01;;;;;;;11.70;5.60;;;;;;;;;;4935193;29;20032;-81
2023/07/10 10:04:28;;;;;;;9.30;5.90;;;;;;;;;;4935573;29;20028;-80
2023/07/10 10:07:00;;;;;;;8.57;5.47;;;;;;;;;;4917861;29;20035;-79
2023/07/10 10:09:28;;;;;;;11.75;5.70;;;;;;;;;;4922057;29;20106;-81
2023/07/10 10:11:57;;;;;;;15.90;6.05;;;;;;;;;;4934749;29;20032;-81
2023/07/10 10:14:22;;;;;;;;;;;;;;;;;;4934261;29;20123;-82
2023/07/10 10:16:48;;;;;;;9.45;5.80;;;;;;;;;;4934794;29;20354;-81
2023/07/10 10:19:19;;;;;;;11.38;5.93;;;;;;;;;;4935030;29;20082;-82
2023/07/10 10:21:45;;;;;;;10.15;5.63;;;;;;;;;;4935012;29;20035;-80
2023/07/10 10:24:11;;;;;;;9.88;5.80;;;;;;;;;;4936362;29;20035;-80
2023/07/10 10:26:37;;;;;;;10.85;5.85;;;;;;;;;;4937819;29;20020;-82
2023/07/10 10:29:05;;;;;;;11.07;5.70;;;;;;;;;;4933617;29;20041;-82
2023/07/10 10:31:35;;;;;;;13.07;5.57;;;;;;;;;;4923901;29;20028;-81
2023/07/10 10:34:00;;;;;;;11.40;5.25;;;;;;;;;;4918070;29;20035;-81
2023/07/10 10:36:38;;;;;;;9.30;5.43;;;;;;;;;;4919021;29;20427;-81
2023/07/10 10:39:09;;;;;;;10.82;5.50;;;;;;;;;;4920300;29;20035;-82
2023/07/10 10:41:40;;;;;;;9.00;5.05;;;;;;;;;;4918348;29;20055;-82
2023/07/10 10:44:21;;;;;;;9.55;5.30;;;;;;;;;;4922547;29;20094;-80
2023/07/10 10:46:54;;;;;;;8.75;5.00;;;;;;;;;;4934599;29;20031;-82
2023/07/10 10:49:23;;;;;;;8.13;4.75;;;;;;;;;;4917608;29;20038;-80
2023/07/10 10:51:49;;;;;;;9.25;5.07;;;;;;;;;;4934085;29;20034;-82
2023/07/10 10:54:23;;;;;;;12.73;4.95;;;;;;;;;;4934517;29;20395;-82
2023/07/10 10:57:15;;;;;;;12.27;4.72;;;;;;;;;;4933801;29;20032;-82
2023/07/10 10:59:40;;;;;;;10.90;4.60;;;;;;;;;;4912691;29;20066;-82
2023/07/10 11:02:12;;;;;;;11.75;5.05;;;;;;;;;;4933368;29;20467;-80
2023/07/10 11:04:40;;;;;;;10.38;4.80;;;;;;;;;;4917129;29;20484;-82
2023/07/10 11:07:09;;;;;;;8.52;4.90;;;;;;;;;;4917115;29;20032;-82
2023/07/10 11:09:38;;;;;;;9.82;5.82;;;;;;;;;;4934453;29;20484;-82
2023/07/10 11:12:04;;;;;;;9.98;5.78;;;;;;;;;;4933953;29;20075;-82
2023/07/10 11:14:30;;;;;;;12.35;5.65;;;;;;;;;;4917249;29;20055;-81
2023/07/10 11:16:56;;;;;;;13.85;6.07;;;;;;;;;;4931178;29;20066;-80
2023/07/10 11:19:27;;;;;;;12.10;5.35;;;;;;;;;;4934364;29;20032;-81
2023/07/10 11:21:53;;;;;;;12.27;5.10;;;;;;;;;;4916759;29;20063;-81
2023/07/10 11:24:31;;;;;;;10.10;5.20;;;;;;;;;;4917068;29;20059;-82
2023/07/10 11:26:58;;;;;;;7.78;4.85;;;;;;;;;;4917294;29;20121;-80
2023/07/10 11:29:34;;;;;;;13.90;5.47;;;;;;;;;;4901606;29;20032;-81
2023/07/10 11:32:01;;;;;;;10.05;5.07;;;;;;;;;;4934288;29;20027;-80
2023/07/10 11:34:29;;;;;;;9.40;5.45;;;;;;;;;;4929230;29;20134;-81
2023/07/10 11:36:56;;;;;;;9.02;5.18;;;;;;;;;;4932170;29;20399;-81
2023/07/10 11:39:27;;;;;;;8.75;4.78;;;;;;;;;;4916763;29;20038;-81
2023/07/10 11:41:53;;;;;;;9.05;5.45;;;;;;;;;;4933160;29;20500;-80
2023/07/10 11:44:24;;;;;;;8.38;5.18;;;;;;;;;;4933626;29;20027;-81
2023/07/10 11:46:55;;;;;;;8.23;4.70;;;;;;;;;;4918578;29;20487;-84
2023/07/10 11:49:21;;;;;;;8.02;4.53;;;;;;;;;;4904202;29;20493;-81
2023/07/10 11:52:25;;;;;;;9.98;4.97;;;;;;;;;;4917992;29;20031;-82
2023/07/10 11:54:51;;;;;;;13.13;5.07;;;;;;;;;;4896238;29;20032;-82
2023/07/10 11:57:19;;;;;;;9.75;5.50;;;;;;;;;;4865481;29;20048;-82
2023/07/10 11:59:46;;;;;;;9.55;5.63;;;;;;;;;;4896486;29;20045;-81
2023/07/10 12:02:24;;;;;;;10.68;5.47;;;;;;;;;;4896243;29;20060;-81
2023/07/10 12:04:49;;;;;;;9.07;5.63;;;;;;;;;;4881686;29;20040;-82
2023/07/10 12:07:15;;;;;;;12.25;6.55;;;;;;;;;;4897664;29;20041;-81
2023/07/10 12:09:40;;;;;;;8.88;5.40;;;;;;;;;;4895316;29;20076;-79
2023/07/10 12:12:10;;;;;;;11.52;5.80;;;;;;;;;;4880057;29;20040;-80
2023/07/10 12:14:36;;;;;;;9.00;5.40;;;;;;;;;;4916583;29;20060;-82
2023/07/10 12:17:03;;;;;;;12.57;5.60;;;;;;;;;;4911743;29;20068;-82
2023/07/10 12:19:34;;;;;;;12.65;6.00;;;;;;;;;;4896374;29;20054;-79
2023/07/10 12:22:24;;;;;;;13.20;7.88;;;;;;;;;;4896508;29;20032;-81
2023/07/10 12:24:51;;;;;;;14.50;6.45;;;;;;;;;;4883681;29;20099;-79
2023/07/10 12:27:18;;;;;;;11.02;6.20;;;;;;;;;;4884290;29;20033;-79
2023/07/10 12:29:48;;;;;;;11.50;6.25;;;;;;;;;;4902458;29;20035;-79
2023/07/10 12:32:14;;;;;;;10.57;6.00;;;;;;;;;;4882781;29;20117;-80
2023/07/10 12:34:40;;;;;;;10.52;6.47;;;;;;;;;;4875881;29;20028;-78
2023/07/10 12:37:08;;;;;;;9.23;6.07;;;;;;;;;;4874539;29;20124;-79
2023/07/10 12:39:34;;;;;;;10.13;6.70;;;;;;;;;;4874483;29;20028;-78
2023/07/10 12:41:59;;;;;;;11.45;6.25;;;;;;;;;;4887574;29;20425;-79
2023/07/10 12:44:30;;;;;;;13.02;7.00;;;;;;;;;;4871925;29;20064;-79
2023/07/10 12:47:05;;;;;;;9.90;6.25;;;;;;;;;;4875620;29;20032;-78
2023/07/10 12:49:31;;;;;;;10.45;6.07;;;;;;;;;;4905217;29;20056;-78
2023/07/10 12:51:58;;;;;;;10.85;6.05;;;;;;;;;;4892374;29;20104;-78
2023/07/10 12:54:25;;;;;;;7.75;5.55;;;;;;;;;;4892090;29;20066;-79
2023/07/10 12:56:52;;;;;;;10.70;6.30;;;;;;;;;;4912825;29;20039;-81
2023/07/10 12:59:26;;;;;;;9.95;6.00;;;;;;;;;;4898035;29;20040;-80
2023/07/10 13:01:57;;;;;;;12.48;6.07;;;;;;;;;;4916084;29;20020;-80
2023/07/10 13:04:24;;;;;;;10.60;5.30;;;;;;;;;;4884902;29;20101;-80
2023/07/10 13:06:59;;;;;;;9.80;5.28;;;;;;;;;;4896853;29;20043;-79
2023/07/10 13:09:25;;;;;;;10.13;5.30;;;;;;;;;;4898567;29;20047;-79
2023/07/10 13:11:51;;;;;;;8.20;5.03;;;;;;;;;;4917342;29;20032;-79
2023/07/10 13:14:28;;;;;;;8.90;5.10;;;;;;;;;;4898752;29;20072;-80
2023/07/10 13:16:54;;;;;;;11.43;5.32;;;;;;;;;;4901067;29;20033;-79
2023/07/10 13:19:20;;;;;;;8.38;4.63;;;;;;;;;;4898739;29;20043;-79
2023/07/10 13:21:46;;;;;;;8.68;4.70;;;;;;;;;;4914260;29;20032;-80
2023/07/10 13:24:11;;;;;;;9.18;4.75;;;;;;;;;;4909583;29;20056;-79
2023/07/10 13:26:38;;;;;;;7.20;4.50;;;;;;;;;;4886626;29;20084;-82
2023/07/10 13:29:09;;;;;;;6.93;4.30;;;;;;;;;;4896780;29;20037;-81
2023/07/10 13:31:35;;;;;;;10.70;4.85;;;;;;;;;;4901776;29;20043;-80
2023/07/10 13:34:01;;;;;;;10.63;3.90;;;;;;;;;;4901371;29;20384;-81
2023/07/10 13:36:27;;;;;;;11.13;4.93;;;;;;;;;;4899888;29;20036;-81
2023/07/10 13:38:53;;;;;;;6.90;4.20;;;;;;;;;;4913900;29;20033;-81
2023/07/10 13:41:20;;;;;;;8.32;4.43;;;;;;;;;;4896363;29;20052;-81
2023/07/10 13:43:46;;;;;;;5.97;4.18;;;;;;;;;;4899313;29;20028;-81
2023/07/10 13:46:21;;;;;;;7.25;3.83;;;;;;;;;;4914571;29;20060;-81
2023/07/10 13:48:51;;;;;;;7.35;4.05;;;;;;;;;;4905389;29;20032;-82
2023/07/10 13:51:17;;;;;;;7.57;3.75;;;;;;;;;;4901335;29;20043;-81
2023/07/10 13:53:43;;;;;;;7.32;4.07;;;;;;;;;;4869990;29;20053;-82
2023/07/10 13:56:22;;;;;;;8.82;4.05;;;;;;;;;;4900364;29;20060;-81
2023/07/10 13:58:48;;;;;;;5.47;3.72;;;;;;;;;;4900232;29;20032;-81
2023/07/10 14:01:15;;;;;;;4.37;3.20;;;;;;;;;;4867918;29;20046;-81
2023/07/10 14:03:41;;;;;;;6.88;3.78;;;;;;;;;;4868319;29;20616;-81
2023/07/10 14:06:19;;;;;;;8.02;3.95;;;;;;;;;;4897650;29;20024;-81
2023/07/10 14:08:45;;;;;;;8.00;3.72;;;;;;;;;;4899125;29;20032;-81
2023/07/10 14:11:11;;;;;;;4.53;3.15;;;;;;;;;;4867657;29;20043;-81
2023/07/10 14:13:36;;;;;;;7.15;3.30;;;;;;;;;;4899086;29;20408;-81
2023/07/10 14:16:04;;;;;;;6.75;4.03;;;;;;;;;;4881604;29;20396;-81
2023/07/10 14:18:30;;;;;;;5.32;3.72;;;;;;;;;;4881635;29;20043;-80
2023/07/10 14:20:59;;;;;;;7.85;3.53;;;;;;;;;;4880821;29;20504;-80
2023/07/10 14:23:26;;;;;;;6.65;3.53;;;;;;;;;;4865284;29;20386;-82
2023/07/10 14:25:52;;;;;;;6.72;3.50;;;;;;;;;;4898748;29;20043;-81
2023/07/10 14:28:20;;;;;;;14.18;3.90;;;;;;;;;;4865879;29;20036;-81
2023/07/10 14:30:46;;;;;;;5.45;3.40;;;;;;;;;;4881432;29;20522;-82
2023/07/10 14:33:11;;;;;;;9.75;4.30;;;;;;;;;;4882073;29;20068;-81
2023/07/10 14:35:38;;;;;;;5.80;3.63;;;;;;;;;;4882216;29;20041;-81
2023/07/10 14:38:18;;;;;;;5.75;3.60;;;;;;;;;;4882629;29;20035;-80
2023/07/10 14:40:44;;;;;;;7.43;3.80;;;;;;;;;;4903018;29;20029;-81
2023/07/10 14:43:10;;;;;;;6.18;3.60;;;;;;;;;;4866313;29;20105;-81
2023/07/10 14:45:36;;;;;;;7.20;3.30;;;;;;;;;;4880437;29;20403;-79
2023/07/10 14:48:02;;;;;;;9.13;4.07;;;;;;;;;;4881952;29;20040;-81
2023/07/10 14:50:28;;;;;;;7.13;3.97;;;;;;;;;;4882674;29;20067;-81
2023/07/10 14:52:54;;;;;;;7.45;3.60;;;;;;;;;;4882146;29;20036;-82